Downsview Airport

METAR CYOO TAF CYOO
-1 °C
°C
-
°C
38m
Idade
23:38:05
LT
22:38
UTC
0 ft

1.000

2.000

3.000

4.000

5.000

OVC 2.900
MVFR
<?= Yii::t('app', 'Wind direction') ?> <?= Yii::t('app', 'of'); ?>
VAR
07:26
Nascer do sol
69%
Humidade
Tesoura de Vento
Fechado/Neve
Alcance visual RWY
Condição RWY
Vert. visibilidade
Min. visibilidade
CAVOK
Tendência
Correcção
Relatório especial
30,28 inHg
QNH
METAR CYOO 062200Z AUTO 00000KT 9SM OVC029 M01/M06 A3028 RMK SLP261
Nublado
0 kt
0 kt
17:00
VFR
5 kt
18:00
VFR
5 kt
19:00
MVFR
5 kt
20:00
MVFR
5 kt
21:00
MVFR
5 kt
22:00
MVFR
5 kt
23:00
IFR
10 kt
9 mi
Visibilidade
2.900 ft
Tecto
Nenhum
Vento
metar-taf.com/CYZD

Metar-Taf.com

Decodificador visual

Nós e terceiros acompanhamos seu comportamento na internet em nosso site com cookies. Se você continuar, nós assumimos que você concorda com nosso política de cookies.